»·PEaware :: QXE2296 KEUG-KSEA

QXE2296 :: KEUG-KSEA

FLIGHT INFORMATION

Flight Status: Arrived
Operator:
Horizon Air
More flights by this operator :: More flights under this callsign
Pilot: Dave P. (45)
Aircraft: DEHAVILLAND DASH 8 400
(DH8D)
More flights by this aircraft type
Origin: KEUG Mahlon Sweet
United States
Destination: KSEA Seattle-Tacoma Intl
United States
More flights between these airports :: More routes between these airports
Route: +EUG1 CVO UBG KRIEG HAWKZ7
File this flight plan on PilotEdge
Remarks:
Altitude:
(Current/Filed)
20,000ft
Speed:
(Current/Filed)
319kts
Departed: 28-May-19 05:12 PM
Arrived: 28-May-19 06:04 PM
Distance/Time
Traveled:
203nm/0:52
Distance/Time
To Go:
Arrived

Flight Plot

Page will automatically refresh every two minutes.

Flight plan parsing failed; only flown route is shown


Map Options




Map Legend


Flown Route
Filed Route
Departure Airport
Arrival Airport
Navaid (VOR, NDB)
Fix

Horizontal Profiles

Position Reports

Time Latitude Longitude Heading Altitude Ground
Speed
28-May-19 16:44 44.118991 -123.213245 210 376ft 0kts
28-May-19 16:45 44.118991 -123.213245 210 376ft 0kts
28-May-19 16:46 44.118991 -123.213245 210 376ft 0kts
28-May-19 16:47 44.118991 -123.213245 210 376ft 0kts
28-May-19 16:48 44.118991 -123.213245 210 376ft 0kts
28-May-19 16:49 44.118991 -123.213245 210 376ft 0kts
28-May-19 16:50 44.118991 -123.213245 210 376ft 0kts
28-May-19 16:51 44.118991 -123.213245 210 376ft 0kts
28-May-19 16:52 44.118991 -123.213245 210 376ft 0kts
28-May-19 16:53 44.118991 -123.213245 210 376ft 0kts
28-May-19 16:54 44.118991 -123.213245 210 376ft 0kts
28-May-19 16:55 44.118991 -123.213245 210 376ft 0kts
28-May-19 16:56 44.118991 -123.213245 210 376ft 0kts
28-May-19 16:57 44.119116 -123.213144 210 376ft 3kts
28-May-19 16:58 44.119575 -123.212766 211 376ft 0kts
28-May-19 16:59 44.119575 -123.212766 211 376ft 0kts
28-May-19 17:00 44.119575 -123.212766 211 376ft 0kts
28-May-19 17:01 44.119575 -123.212766 211 376ft 0kts
28-May-19 17:02 44.119575 -123.212766 211 376ft 0kts
28-May-19 17:03 44.119575 -123.212766 211 376ft 0kts
28-May-19 17:04 44.119544 -123.212813 232 376ft 2kts
28-May-19 17:05 44.122507 -123.215507 324 376ft 19kts
28-May-19 17:06 44.127108 -123.217216 358 376ft 26kts
28-May-19 17:07 44.133335 -123.217292 359 376ft 18kts
28-May-19 17:08 44.135196 -123.218160 267 376ft 0kts
28-May-19 17:09 44.135196 -123.218160 267 376ft 0kts
28-May-19 17:10 44.135140 -123.219002 246 376ft 6kts
28-May-19 17:11 44.122241 -123.218895 178 435ft 143kts
28-May-19 17:12 44.068699 -123.215056 179 2290ft 210kts
28-May-19 17:13 44.008584 -123.212222 180 5018ft 228kts
28-May-19 17:14 43.965814 -123.261309 277 7714ft 225kts
28-May-19 17:15 44.014105 -123.300733 359 10430ft 230kts
28-May-19 17:16 44.080065 -123.299882 359 12523ft 243kts
28-May-19 17:17 44.148691 -123.298694 0 14394ft 251kts
28-May-19 17:18 44.218602 -123.287128 9 16003ft 258kts
28-May-19 17:19 44.290077 -123.268335 8 17399ft 264kts
28-May-19 17:20 44.362969 -123.249206 8 18639ft 270kts
28-May-19 17:21 44.437508 -123.229814 8 19744ft 274kts
28-May-19 17:22 44.515947 -123.209437 9 20066ft 299kts
28-May-19 17:23 44.600392 -123.187386 9 20145ft 320kts
28-May-19 17:24 44.689468 -123.164045 9 20143ft 331kts
28-May-19 17:25 44.780982 -123.140034 9 20137ft 338kts
28-May-19 17:26 44.873782 -123.115541 9 20130ft 341kts
28-May-19 17:27 44.967331 -123.090782 9 20130ft 343kts
28-May-19 17:28 45.061246 -123.065727 9 20130ft 345kts
28-May-19 17:29 45.155603 -123.040489 9 20131ft 346kts
28-May-19 17:30 45.250187 -123.015231 9 20131ft 347kts
28-May-19 17:31 45.344961 -122.989723 9 20134ft 347kts
28-May-19 17:32 45.439957 -122.964130 9 20130ft 348kts
28-May-19 17:33 45.534875 -122.938454 10 20121ft 348kts
28-May-19 17:34 45.630224 -122.912618 10 20120ft 349kts
28-May-19 17:35 45.725360 -122.886628 10 20125ft 349kts
28-May-19 17:36 45.820545 -122.860622 10 20128ft 349kts
28-May-19 17:37 45.915862 -122.834402 10 20128ft 350kts
28-May-19 17:38 46.011219 -122.808063 10 20128ft 350kts
28-May-19 17:39 46.107030 -122.781938 10 20128ft 351kts
28-May-19 17:40 46.202761 -122.755201 10 20128ft 352kts
28-May-19 17:41 46.298804 -122.728232 10 20126ft 352kts
28-May-19 17:42 46.396589 -122.724232 357 19111ft 355kts
28-May-19 17:43 46.493991 -122.728574 359 17355ft 345kts
28-May-19 17:44 46.588069 -122.731870 359 15661ft 334kts
28-May-19 17:45 46.679574 -122.735204 359 13927ft 325kts
28-May-19 17:46 46.768290 -122.734304 16 12377ft 317kts
28-May-19 17:47 46.839505 -122.672899 32 12130ft 288kts
28-May-19 17:48 46.903084 -122.602293 37 12124ft 288kts
28-May-19 17:49 46.972502 -122.545866 16 11764ft 289kts
28-May-19 17:50 47.047651 -122.513869 16 10460ft 281kts
28-May-19 17:51 47.120004 -122.492168 5 10060ft 251kts
28-May-19 17:52 47.191379 -122.479852 6 9991ft 255kts
28-May-19 17:53 47.260690 -122.469025 5 8902ft 247kts
28-May-19 17:54 47.328694 -122.460985 0 7335ft 244kts
28-May-19 17:55 47.395889 -122.454673 1 5898ft 241kts
28-May-19 17:56 47.462446 -122.447528 1 4444ft 240kts
28-May-19 17:57 47.528423 -122.441353 1 3117ft 234kts
28-May-19 17:58 47.589178 -122.432778 27 2982ft 209kts
28-May-19 17:59 47.599215 -122.356161 106 2648ft 199kts
28-May-19 18:00 47.567864 -122.301474 182 1670ft 160kts
28-May-19 18:01 47.527303 -122.310491 193 2104ft 165kts
28-May-19 18:02 47.473747 -122.317484 183 849ft 173kts
28-May-19 18:03 47.442180 -122.317805 165 440ft 10kts
28-May-19 18:04 47.439030 -122.314429 141 440ft 18kts
28-May-19 18:05 47.437883 -122.306858 87 440ft 28kts
28-May-19 18:06 47.442815 -122.305674 0 440ft 11kts
28-May-19 18:07 47.443671 -122.304609 1 440ft 0kts
28-May-19 18:08 47.443672 -122.304609 1 440ft 0kts
28-May-19 18:09 47.443672 -122.304609 1 440ft 0kts
28-May-19 18:10 47.443672 -122.304609 1 440ft 0kts

Navigation Log

Ident Type
Flight plan parsing failed, navigation log unavailable